sensor_id;sensor_type;location;lat;lon;timestamp;temperature;humidity
47861;HTU21D;33620;52.340;5.984;2022-12-11T00:01:52;1.17;93.62
47861;HTU21D;33620;52.340;5.984;2022-12-11T00:04:18;1.19;93.72
47861;HTU21D;33620;52.340;5.984;2022-12-11T00:06:43;1.18;93.69
47861;HTU21D;33620;52.340;5.984;2022-12-11T00:09:09;1.19;93.65
47861;HTU21D;33620;52.340;5.984;2022-12-11T00:11:35;1.20;93.65
47861;HTU21D;33620;52.340;5.984;2022-12-11T00:14:00;1.21;93.69
47861;HTU21D;33620;52.340;5.984;2022-12-11T00:16:25;1.21;93.75
47861;HTU21D;33620;52.340;5.984;2022-12-11T00:18:51;1.24;93.72
47861;HTU21D;33620;52.340;5.984;2022-12-11T00:21:16;1.24;93.68
47861;HTU21D;33620;52.340;5.984;2022-12-11T00:23:41;1.24;93.65
47861;HTU21D;33620;52.340;5.984;2022-12-11T00:26:09;1.24;93.52
47861;HTU21D;33620;52.340;5.984;2022-12-11T00:28:35;1.25;93.66
47861;HTU21D;33620;52.340;5.984;2022-12-11T00:31:05;1.26;93.77
47861;HTU21D;33620;52.340;5.984;2022-12-11T00:33:31;1.27;93.63
47861;HTU21D;33620;52.340;5.984;2022-12-11T00:35:57;1.27;93.61
47861;HTU21D;33620;52.340;5.984;2022-12-11T00:38:22;1.29;93.62
47861;HTU21D;33620;52.340;5.984;2022-12-11T00:40:48;1.29;93.72
47861;HTU21D;33620;52.340;5.984;2022-12-11T00:43:14;1.31;93.71
47861;HTU21D;33620;52.340;5.984;2022-12-11T00:45:44;1.31;93.56
47861;HTU21D;33620;52.340;5.984;2022-12-11T00:48:11;1.28;93.74
47861;HTU21D;33620;52.340;5.984;2022-12-11T00:50:38;1.32;93.77
47861;HTU21D;33620;52.340;5.984;2022-12-11T00:53:04;1.35;93.75
47861;HTU21D;33620;52.340;5.984;2022-12-11T00:55:30;1.36;93.69
47861;HTU21D;33620;52.340;5.984;2022-12-11T00:57:56;1.39;93.60
47861;HTU21D;33620;52.340;5.984;2022-12-11T01:00:23;1.40;93.62
47861;HTU21D;33620;52.340;5.984;2022-12-11T01:02:49;1.41;93.62
47861;HTU21D;33620;52.340;5.984;2022-12-11T01:05:14;1.40;93.61
47861;HTU21D;33620;52.340;5.984;2022-12-11T01:07:40;1.41;93.62
47861;HTU21D;33620;52.340;5.984;2022-12-11T01:10:05;1.42;93.56
47861;HTU21D;33620;52.340;5.984;2022-12-11T01:12:57;1.43;93.56
47861;HTU21D;33620;52.340;5.984;2022-12-11T01:15:25;1.46;93.54
47861;HTU21D;33620;52.340;5.984;2022-12-11T01:17:52;1.46;93.50
47861;HTU21D;33620;52.340;5.984;2022-12-11T01:20:19;1.46;93.42
47861;HTU21D;33620;52.340;5.984;2022-12-11T01:22:45;1.46;93.46
47861;HTU21D;33620;52.340;5.984;2022-12-11T01:25:10;1.49;93.53
47861;HTU21D;33620;52.340;5.984;2022-12-11T01:27:37;1.49;93.64
47861;HTU21D;33620;52.340;5.984;2022-12-11T01:30:06;1.49;93.54
47861;HTU21D;33620;52.340;5.984;2022-12-11T01:32:33;1.50;93.64
47861;HTU21D;33620;52.340;5.984;2022-12-11T01:35:02;1.50;93.61
47861;HTU21D;33620;52.340;5.984;2022-12-11T01:37:28;1.51;93.60
47861;HTU21D;33620;52.340;5.984;2022-12-11T01:39:54;1.52;93.60
47861;HTU21D;33620;52.340;5.984;2022-12-11T01:42:20;1.53;93.57
47861;HTU21D;33620;52.340;5.984;2022-12-11T01:47:11;1.55;93.48
47861;HTU21D;33620;52.340;5.984;2022-12-11T01:49:38;1.58;93.49
47861;HTU21D;33620;52.340;5.984;2022-12-11T01:52:15;1.58;93.55
47861;HTU21D;33620;52.340;5.984;2022-12-11T01:54:44;1.61;93.49
47861;HTU21D;33620;52.340;5.984;2022-12-11T01:57:11;1.62;93.42
47861;HTU21D;33620;52.340;5.984;2022-12-11T01:59:39;1.63;93.36
47861;HTU21D;33620;52.340;5.984;2022-12-11T02:02:09;1.62;93.37
47861;HTU21D;33620;52.340;5.984;2022-12-11T02:04:37;1.62;93.40
47861;HTU21D;33620;52.340;5.984;2022-12-11T02:07:03;1.63;93.43
47861;HTU21D;33620;52.340;5.984;2022-12-11T02:09:31;1.64;93.27
47861;HTU21D;33620;52.340;5.984;2022-12-11T02:26:07;1.66;93.25
47861;HTU21D;33620;52.340;5.984;2022-12-11T02:28:48;1.65;93.28
47861;HTU21D;33620;52.340;5.984;2022-12-11T02:31:24;1.66;93.27
47861;HTU21D;33620;52.340;5.984;2022-12-11T02:36:23;1.65;93.20
47861;HTU21D;33620;52.340;5.984;2022-12-11T02:38:52;1.64;93.17
47861;HTU21D;33620;52.340;5.984;2022-12-11T02:41:20;1.65;93.19
47861;HTU21D;33620;52.340;5.984;2022-12-11T02:43:48;1.66;93.29
47861;HTU21D;33620;52.340;5.984;2022-12-11T02:46:15;1.66;93.18
47861;HTU21D;33620;52.340;5.984;2022-12-11T02:48:42;1.67;93.30
47861;HTU21D;33620;52.340;5.984;2022-12-11T02:51:08;1.67;93.33
47861;HTU21D;33620;52.340;5.984;2022-12-11T02:53:37;1.69;93.40
47861;HTU21D;33620;52.340;5.984;2022-12-11T02:56:10;1.69;93.37
47861;HTU21D;33620;52.340;5.984;2022-12-11T02:58:43;1.69;93.35
47861;HTU21D;33620;52.340;5.984;2022-12-11T03:01:10;1.70;93.35
47861;HTU21D;33620;52.340;5.984;2022-12-11T03:03:35;1.70;93.43
47861;HTU21D;33620;52.340;5.984;2022-12-11T03:06:01;1.71;93.40
47861;HTU21D;33620;52.340;5.984;2022-12-11T03:08:28;1.71;93.33
47861;HTU21D;33620;52.340;5.984;2022-12-11T03:10:53;1.70;93.27
47861;HTU21D;33620;52.340;5.984;2022-12-11T03:13:20;1.71;93.34
47861;HTU21D;33620;52.340;5.984;2022-12-11T03:20:47;1.72;93.37
47861;HTU21D;33620;52.340;5.984;2022-12-11T03:23:33;1.73;93.43
47861;HTU21D;33620;52.340;5.984;2022-12-11T03:26:09;1.73;93.39
47861;HTU21D;33620;52.340;5.984;2022-12-11T03:31:04;1.73;93.46
47861;HTU21D;33620;52.340;5.984;2022-12-11T03:33:36;1.75;93.44
47861;HTU21D;33620;52.340;5.984;2022-12-11T03:36:07;1.77;93.40
47861;HTU21D;33620;52.340;5.984;2022-12-11T03:38:44;1.73;93.40
47861;HTU21D;33620;52.340;5.984;2022-12-11T03:41:11;1.75;93.32
47861;HTU21D;33620;52.340;5.984;2022-12-11T03:43:38;1.75;93.43
47861;HTU21D;33620;52.340;5.984;2022-12-11T03:46:05;1.75;93.50
47861;HTU21D;33620;52.340;5.984;2022-12-11T03:48:35;1.75;93.46
47861;HTU21D;33620;52.340;5.984;2022-12-11T03:51:05;1.75;93.54
47861;HTU21D;33620;52.340;5.984;2022-12-11T03:53:32;1.73;93.53
47861;HTU21D;33620;52.340;5.984;2022-12-11T03:55:59;1.77;93.53
47861;HTU21D;33620;52.340;5.984;2022-12-11T03:58:25;1.77;93.57
47861;HTU21D;33620;52.340;5.984;2022-12-11T04:00:50;1.78;93.51
47861;HTU21D;33620;52.340;5.984;2022-12-11T04:03:16;1.76;93.56
47861;HTU21D;33620;52.340;5.984;2022-12-11T04:05:48;1.77;93.49
47861;HTU21D;33620;52.340;5.984;2022-12-11T04:08:15;1.76;93.53
47861;HTU21D;33620;52.340;5.984;2022-12-11T04:10:41;1.77;93.53
47861;HTU21D;33620;52.340;5.984;2022-12-11T04:13:07;1.78;93.49
47861;HTU21D;33620;52.340;5.984;2022-12-11T04:15:33;1.77;93.53
47861;HTU21D;33620;52.340;5.984;2022-12-11T04:17:58;1.78;93.56
47861;HTU21D;33620;52.340;5.984;2022-12-11T04:20:42;1.77;93.50
47861;HTU21D;33620;52.340;5.984;2022-12-11T04:23:26;1.78;93.51
47861;HTU21D;33620;52.340;5.984;2022-12-11T04:26:13;1.79;93.53
47861;HTU21D;33620;52.340;5.984;2022-12-11T04:28:39;1.79;93.51
47861;HTU21D;33620;52.340;5.984;2022-12-11T04:31:05;1.80;93.43
47861;HTU21D;33620;52.340;5.984;2022-12-11T04:33:31;1.79;93.50
47861;HTU21D;33620;52.340;5.984;2022-12-11T04:35:58;1.79;93.41
47861;HTU21D;33620;52.340;5.984;2022-12-11T04:38:23;1.80;93.60
47861;HTU21D;33620;52.340;5.984;2022-12-11T04:40:49;1.80;93.67
47861;HTU21D;33620;52.340;5.984;2022-12-11T04:43:20;1.83;93.69
47861;HTU21D;33620;52.340;5.984;2022-12-11T04:45:46;1.82;93.69
47861;HTU21D;33620;52.340;5.984;2022-12-11T04:48:11;1.83;93.69
47861;HTU21D;33620;52.340;5.984;2022-12-11T04:50:37;1.84;93.72
47861;HTU21D;33620;52.340;5.984;2022-12-11T04:53:03;1.84;93.66
47861;HTU21D;33620;52.340;5.984;2022-12-11T04:55:28;1.85;93.56
47861;HTU21D;33620;52.340;5.984;2022-12-11T04:57:54;1.84;93.57
47861;HTU21D;33620;52.340;5.984;2022-12-11T05:00:19;1.84;93.51
47861;HTU21D;33620;52.340;5.984;2022-12-11T05:02:45;1.83;93.59
47861;HTU21D;33620;52.340;5.984;2022-12-11T05:05:10;1.84;93.66
47861;HTU21D;33620;52.340;5.984;2022-12-11T05:07:37;1.85;93.66
47861;HTU21D;33620;52.340;5.984;2022-12-11T05:10:03;1.86;93.65
47861;HTU21D;33620;52.340;5.984;2022-12-11T05:12:31;1.86;93.62
47861;HTU21D;33620;52.340;5.984;2022-12-11T05:14:56;1.86;93.59
47861;HTU21D;33620;52.340;5.984;2022-12-11T05:17:22;1.86;93.62
47861;HTU21D;33620;52.340;5.984;2022-12-11T05:19:48;1.88;93.64
47861;HTU21D;33620;52.340;5.984;2022-12-11T05:22:14;1.90;93.53
47861;HTU21D;33620;52.340;5.984;2022-12-11T05:24:40;1.90;93.46
47861;HTU21D;33620;52.340;5.984;2022-12-11T05:27:06;1.90;93.40
47861;HTU21D;33620;52.340;5.984;2022-12-11T05:29:31;1.88;93.43
47861;HTU21D;33620;52.340;5.984;2022-12-11T05:31:56;1.91;93.30
47861;HTU21D;33620;52.340;5.984;2022-12-11T05:34:22;1.91;93.46
47861;HTU21D;33620;52.340;5.984;2022-12-11T05:36:47;1.91;93.35
47861;HTU21D;33620;52.340;5.984;2022-12-11T05:39:13;1.91;93.44
47861;HTU21D;33620;52.340;5.984;2022-12-11T05:41:38;1.91;93.35
47861;HTU21D;33620;52.340;5.984;2022-12-11T05:44:04;1.92;93.36
47861;HTU21D;33620;52.340;5.984;2022-12-11T05:46:29;1.93;93.35
47861;HTU21D;33620;52.340;5.984;2022-12-11T05:48:57;1.92;93.29
47861;HTU21D;33620;52.340;5.984;2022-12-11T05:51:23;1.92;93.35
47861;HTU21D;33620;52.340;5.984;2022-12-11T05:53:50;1.90;93.35
47861;HTU21D;33620;52.340;5.984;2022-12-11T05:56:19;1.94;93.46
47861;HTU21D;33620;52.340;5.984;2022-12-11T05:58:45;1.92;93.36
47861;HTU21D;33620;52.340;5.984;2022-12-11T06:01:20;1.93;93.43
47861;HTU21D;33620;52.340;5.984;2022-12-11T06:03:46;1.95;93.45
47861;HTU21D;33620;52.340;5.984;2022-12-11T06:06:12;1.95;93.40
47861;HTU21D;33620;52.340;5.984;2022-12-11T06:08:37;1.97;93.24
47861;HTU21D;33620;52.340;5.984;2022-12-11T06:11:04;1.96;93.37
47861;HTU21D;33620;52.340;5.984;2022-12-11T06:13:29;1.98;93.33
47861;HTU21D;33620;52.340;5.984;2022-12-11T06:15:59;2.00;93.27
47861;HTU21D;33620;52.340;5.984;2022-12-11T06:18:24;1.99;93.21
47861;HTU21D;33620;52.340;5.984;2022-12-11T06:20:50;1.99;93.24
47861;HTU21D;33620;52.340;5.984;2022-12-11T06:23:15;1.99;93.18
47861;HTU21D;33620;52.340;5.984;2022-12-11T06:25:40;1.99;93.18
47861;HTU21D;33620;52.340;5.984;2022-12-11T06:28:06;2.00;93.24
47861;HTU21D;33620;52.340;5.984;2022-12-11T06:30:31;2.01;93.14
47861;HTU21D;33620;52.340;5.984;2022-12-11T06:32:57;2.00;93.12
47861;HTU21D;33620;52.340;5.984;2022-12-11T06:35:23;1.99;93.14
47861;HTU21D;33620;52.340;5.984;2022-12-11T06:37:48;1.99;93.12
47861;HTU21D;33620;52.340;5.984;2022-12-11T06:40:14;1.99;93.11
47861;HTU21D;33620;52.340;5.984;2022-12-11T06:42:40;1.99;93.13
47861;HTU21D;33620;52.340;5.984;2022-12-11T06:45:05;1.99;93.12
47861;HTU21D;33620;52.340;5.984;2022-12-11T06:47:31;1.98;93.19
47861;HTU21D;33620;52.340;5.984;2022-12-11T06:49:57;1.97;93.30
47861;HTU21D;33620;52.340;5.984;2022-12-11T06:52:24;1.98;93.43
47861;HTU21D;33620;52.340;5.984;2022-12-11T06:54:51;1.95;93.28
47861;HTU21D;33620;52.340;5.984;2022-12-11T06:57:17;1.97;93.46
47861;HTU21D;33620;52.340;5.984;2022-12-11T06:59:43;1.95;93.43
47861;HTU21D;33620;52.340;5.984;2022-12-11T07:02:12;1.95;93.33
47861;HTU21D;33620;52.340;5.984;2022-12-11T07:04:38;1.93;93.35
47861;HTU21D;33620;52.340;5.984;2022-12-11T07:07:03;1.92;93.42
47861;HTU21D;33620;52.340;5.984;2022-12-11T07:09:29;1.92;93.37
47861;HTU21D;33620;52.340;5.984;2022-12-11T07:11:54;1.90;93.47
47861;HTU21D;33620;52.340;5.984;2022-12-11T07:14:19;1.92;93.51
47861;HTU21D;33620;52.340;5.984;2022-12-11T07:16:45;1.92;93.56
47861;HTU21D;33620;52.340;5.984;2022-12-11T07:19:10;1.94;93.56
47861;HTU21D;33620;52.340;5.984;2022-12-11T07:21:36;1.95;93.49
47861;HTU21D;33620;52.340;5.984;2022-12-11T07:24:01;1.95;93.50
47861;HTU21D;33620;52.340;5.984;2022-12-11T07:26:27;1.96;93.67
47861;HTU21D;33620;52.340;5.984;2022-12-11T07:28:55;1.98;93.63
47861;HTU21D;33620;52.340;5.984;2022-12-11T07:31:23;1.98;93.67
47861;HTU21D;33620;52.340;5.984;2022-12-11T07:34:07;1.98;93.68
47861;HTU21D;33620;52.340;5.984;2022-12-11T07:36:33;1.98;93.62
47861;HTU21D;33620;52.340;5.984;2022-12-11T07:38:59;1.98;93.67
47861;HTU21D;33620;52.340;5.984;2022-12-11T07:41:25;1.99;93.60
47861;HTU21D;33620;52.340;5.984;2022-12-11T07:43:53;2.00;93.62
47861;HTU21D;33620;52.340;5.984;2022-12-11T07:46:21;2.00;93.52
47861;HTU21D;33620;52.340;5.984;2022-12-11T07:48:47;1.99;93.44
47861;HTU21D;33620;52.340;5.984;2022-12-11T07:51:28;1.98;93.39
47861;HTU21D;33620;52.340;5.984;2022-12-11T07:53:59;1.98;93.49
47861;HTU21D;33620;52.340;5.984;2022-12-11T07:56:26;2.00;93.54
47861;HTU21D;33620;52.340;5.984;2022-12-11T07:58:51;2.02;93.36
47861;HTU21D;33620;52.340;5.984;2022-12-11T08:01:20;2.02;93.20
47861;HTU21D;33620;52.340;5.984;2022-12-11T08:03:46;2.05;93.24
47861;HTU21D;33620;52.340;5.984;2022-12-11T08:06:12;2.06;93.20
47861;HTU21D;33620;52.340;5.984;2022-12-11T08:08:38;2.07;93.26
47861;HTU21D;33620;52.340;5.984;2022-12-11T08:11:07;2.08;93.19
47861;HTU21D;33620;52.340;5.984;2022-12-11T08:13:32;2.10;93.11
47861;HTU21D;33620;52.340;5.984;2022-12-11T08:15:58;2.10;93.09
47861;HTU21D;33620;52.340;5.984;2022-12-11T08:18:26;2.10;92.84
47861;HTU21D;33620;52.340;5.984;2022-12-11T08:20:52;2.11;92.87
47861;HTU21D;33620;52.340;5.984;2022-12-11T08:23:17;2.10;92.87
47861;HTU21D;33620;52.340;5.984;2022-12-11T08:25:43;2.11;92.86
47861;HTU21D;33620;52.340;5.984;2022-12-11T08:28:08;2.11;92.79
47861;HTU21D;33620;52.340;5.984;2022-12-11T08:30:33;2.12;92.83
47861;HTU21D;33620;52.340;5.984;2022-12-11T08:32:59;2.08;92.69
47861;HTU21D;33620;52.340;5.984;2022-12-11T08:35:25;2.08;92.82
47861;HTU21D;33620;52.340;5.984;2022-12-11T08:37:51;2.09;92.83
47861;HTU21D;33620;52.340;5.984;2022-12-11T08:40:16;2.09;92.92
47861;HTU21D;33620;52.340;5.984;2022-12-11T08:42:44;2.11;92.88
47861;HTU21D;33620;52.340;5.984;2022-12-11T08:45:10;2.09;92.76
47861;HTU21D;33620;52.340;5.984;2022-12-11T08:47:35;2.03;92.61
47861;HTU21D;33620;52.340;5.984;2022-12-11T08:50:01;2.02;92.72
47861;HTU21D;33620;52.340;5.984;2022-12-11T08:52:26;2.01;92.72
47861;HTU21D;33620;52.340;5.984;2022-12-11T08:54:52;1.96;92.21
47861;HTU21D;33620;52.340;5.984;2022-12-11T08:57:17;1.92;92.43
47861;HTU21D;33620;52.340;5.984;2022-12-11T08:59:43;1.92;92.56
47861;HTU21D;33620;52.340;5.984;2022-12-11T09:02:10;1.86;92.35
47861;HTU21D;33620;52.340;5.984;2022-12-11T09:04:36;1.87;92.67
47861;HTU21D;33620;52.340;5.984;2022-12-11T09:07:02;1.91;92.73
47861;HTU21D;33620;52.340;5.984;2022-12-11T09:09:27;1.92;92.54
47861;HTU21D;33620;52.340;5.984;2022-12-11T09:11:52;1.91;92.50
47861;HTU21D;33620;52.340;5.984;2022-12-11T09:14:18;1.91;92.46
47861;HTU21D;33620;52.340;5.984;2022-12-11T09:16:43;1.94;92.40
47861;HTU21D;33620;52.340;5.984;2022-12-11T09:19:12;1.94;92.24
47861;HTU21D;33620;52.340;5.984;2022-12-11T09:21:38;1.93;92.21
47861;HTU21D;33620;52.340;5.984;2022-12-11T09:24:04;1.96;92.25
47861;HTU21D;33620;52.340;5.984;2022-12-11T09:26:29;1.97;92.14
47861;HTU21D;33620;52.340;5.984;2022-12-11T09:28:55;1.98;92.08
47861;HTU21D;33620;52.340;5.984;2022-12-11T09:31:31;1.98;91.68
47861;HTU21D;33620;52.340;5.984;2022-12-11T09:33:59;1.88;90.73
47861;HTU21D;33620;52.340;5.984;2022-12-11T09:36:25;1.82;90.09
47861;HTU21D;33620;52.340;5.984;2022-12-11T09:38:51;1.75;90.07
47861;HTU21D;33620;52.340;5.984;2022-12-11T09:41:22;1.75;90.67
47861;HTU21D;33620;52.340;5.984;2022-12-11T09:46:52;1.83;91.00
47861;HTU21D;33620;52.340;5.984;2022-12-11T09:49:25;1.86;91.09
47861;HTU21D;33620;52.340;5.984;2022-12-11T09:52:17;1.87;90.99
47861;HTU21D;33620;52.340;5.984;2022-12-11T09:54:49;1.87;90.89
47861;HTU21D;33620;52.340;5.984;2022-12-11T10:00:06;1.92;90.74
47861;HTU21D;33620;52.340;5.984;2022-12-11T10:05:50;1.93;90.68
47861;HTU21D;33620;52.340;5.984;2022-12-11T10:08:31;1.93;90.57
47861;HTU21D;33620;52.340;5.984;2022-12-11T10:17:24;1.80;89.45
47861;HTU21D;33620;52.340;5.984;2022-12-11T10:19:51;1.72;89.01
47861;HTU21D;33620;52.340;5.984;2022-12-11T10:22:22;1.70;89.25
47861;HTU21D;33620;52.340;5.984;2022-12-11T10:25:00;1.71;89.63
47861;HTU21D;33620;52.340;5.984;2022-12-11T10:27:36;1.66;89.09
47861;HTU21D;33620;52.340;5.984;2022-12-11T10:30:21;1.60;89.27
47861;HTU21D;33620;52.340;5.984;2022-12-11T10:35:44;1.65;90.16
47861;HTU21D;33620;52.340;5.984;2022-12-11T10:38:23;1.67;90.16
47861;HTU21D;33620;52.340;5.984;2022-12-11T10:40:55;1.64;89.54
47861;HTU21D;33620;52.340;5.984;2022-12-11T10:43:42;1.61;89.66
47861;HTU21D;33620;52.340;5.984;2022-12-11T10:46:19;1.60;89.78
47861;HTU21D;33620;52.340;5.984;2022-12-11T10:48:52;1.64;90.12
47861;HTU21D;33620;52.340;5.984;2022-12-11T10:51:20;1.72;90.29
47861;HTU21D;33620;52.340;5.984;2022-12-11T10:53:54;1.78;90.40
47861;HTU21D;33620;52.340;5.984;2022-12-11T10:56:27;1.82;90.10
47861;HTU21D;33620;52.340;5.984;2022-12-11T10:58:54;1.84;90.03
47861;HTU21D;33620;52.340;5.984;2022-12-11T11:01:22;1.88;89.86
47861;HTU21D;33620;52.340;5.984;2022-12-11T11:04:18;1.93;89.92
47861;HTU21D;33620;52.340;5.984;2022-12-11T11:06:44;1.96;89.92
47861;HTU21D;33620;52.340;5.984;2022-12-11T11:09:33;1.98;89.59
47861;HTU21D;33620;52.340;5.984;2022-12-11T11:12:00;2.01;89.57
47861;HTU21D;33620;52.340;5.984;2022-12-11T11:14:25;2.01;89.38
47861;HTU21D;33620;52.340;5.984;2022-12-11T11:16:54;2.03;89.50
47861;HTU21D;33620;52.340;5.984;2022-12-11T11:19:28;2.03;89.53
47861;HTU21D;33620;52.340;5.984;2022-12-11T11:22:15;2.08;89.56
47861;HTU21D;33620;52.340;5.984;2022-12-11T11:24:51;2.11;89.59
47861;HTU21D;33620;52.340;5.984;2022-12-11T11:27:33;2.13;89.57
47861;HTU21D;33620;52.340;5.984;2022-12-11T11:30:03;2.16;89.35
47861;HTU21D;33620;52.340;5.984;2022-12-11T11:32:37;2.19;89.20
47861;HTU21D;33620;52.340;5.984;2022-12-11T11:35:16;2.21;88.89
47861;HTU21D;33620;52.340;5.984;2022-12-11T11:37:53;2.24;88.76
47861;HTU21D;33620;52.340;5.984;2022-12-11T11:40:29;2.25;88.60
47861;HTU21D;33620;52.340;5.984;2022-12-11T11:43:18;2.26;88.44
47861;HTU21D;33620;52.340;5.984;2022-12-11T11:45:58;2.26;88.47
47861;HTU21D;33620;52.340;5.984;2022-12-11T11:51:13;2.30;88.48
47861;HTU21D;33620;52.340;5.984;2022-12-11T11:53:40;2.31;88.45
47861;HTU21D;33620;52.340;5.984;2022-12-11T11:56:25;2.31;88.31
47861;HTU21D;33620;52.340;5.984;2022-12-11T11:58:53;2.35;88.28
47861;HTU21D;33620;52.340;5.984;2022-12-11T12:01:20;2.34;88.24
47861;HTU21D;33620;52.340;5.984;2022-12-11T12:03:47;2.38;88.28
47861;HTU21D;33620;52.340;5.984;2022-12-11T12:14:31;2.37;88.19
47861;HTU21D;33620;52.340;5.984;2022-12-11T12:25:24;2.31;88.07
47861;HTU21D;33620;52.340;5.984;2022-12-11T12:33:34;2.37;88.10
47861;HTU21D;33620;52.340;5.984;2022-12-11T12:36:17;2.37;87.97
47861;HTU21D;33620;52.340;5.984;2022-12-11T12:39:00;2.38;87.99
47861;HTU21D;33620;52.340;5.984;2022-12-11T12:44:12;2.39;87.80
47861;HTU21D;33620;52.340;5.984;2022-12-11T12:47:31;2.42;87.80
47861;HTU21D;33620;52.340;5.984;2022-12-11T12:49:50;2.44;87.93
47861;HTU21D;33620;52.340;5.984;2022-12-11T12:52:21;2.47;88.17
47861;HTU21D;33620;52.340;5.984;2022-12-11T12:54:53;2.49;88.20
47861;HTU21D;33620;52.340;5.984;2022-12-11T12:57:45;2.46;87.83
47861;HTU21D;33620;52.340;5.984;2022-12-11T13:00:11;2.46;87.67
47861;HTU21D;33620;52.340;5.984;2022-12-11T13:02:48;2.45;87.77
47861;HTU21D;33620;52.340;5.984;2022-12-11T13:05:20;2.43;87.73
47861;HTU21D;33620;52.340;5.984;2022-12-11T13:07:49;2.44;87.73
47861;HTU21D;33620;52.340;5.984;2022-12-11T13:12:48;2.46;87.86
47861;HTU21D;33620;52.340;5.984;2022-12-11T13:15:30;2.46;88.05
47861;HTU21D;33620;52.340;5.984;2022-12-11T13:17:57;2.46;88.01
47861;HTU21D;33620;52.340;5.984;2022-12-11T13:20:25;2.47;88.02
47861;HTU21D;33620;52.340;5.984;2022-12-11T13:25:32;2.47;87.89
47861;HTU21D;33620;52.340;5.984;2022-12-11T13:28:33;2.46;87.80
47861;HTU21D;33620;52.340;5.984;2022-12-11T13:33:42;2.45;87.66
47861;HTU21D;33620;52.340;5.984;2022-12-11T13:38:34;2.43;87.64
47861;HTU21D;33620;52.340;5.984;2022-12-11T13:41:00;2.41;87.54
47861;HTU21D;33620;52.340;5.984;2022-12-11T13:43:30;2.40;87.70
47861;HTU21D;33620;52.340;5.984;2022-12-11T13:45:59;2.39;87.79
47861;HTU21D;33620;52.340;5.984;2022-12-11T13:51:00;2.41;87.99
47861;HTU21D;33620;52.340;5.984;2022-12-11T13:53:26;2.41;87.89
47861;HTU21D;33620;52.340;5.984;2022-12-11T13:56:01;2.43;87.80
47861;HTU21D;33620;52.340;5.984;2022-12-11T13:58:28;2.45;87.83
47861;HTU21D;33620;52.340;5.984;2022-12-11T14:01:16;2.46;87.62
47861;HTU21D;33620;52.340;5.984;2022-12-11T14:03:53;2.47;87.73
47861;HTU21D;33620;52.340;5.984;2022-12-11T14:06:20;2.45;87.69
47861;HTU21D;33620;52.340;5.984;2022-12-11T14:08:49;2.44;87.66
47861;HTU21D;33620;52.340;5.984;2022-12-11T14:11:25;2.43;87.69
47861;HTU21D;33620;52.340;5.984;2022-12-11T14:13:59;2.41;87.88
47861;HTU21D;33620;52.340;5.984;2022-12-11T14:16:26;2.40;87.93
47861;HTU21D;33620;52.340;5.984;2022-12-11T14:18:53;2.41;88.01
47861;HTU21D;33620;52.340;5.984;2022-12-11T14:21:23;2.39;88.02
47861;HTU21D;33620;52.340;5.984;2022-12-11T14:23:54;2.41;88.15
47861;HTU21D;33620;52.340;5.984;2022-12-11T14:26:26;2.42;88.12
47861;HTU21D;33620;52.340;5.984;2022-12-11T14:28:52;2.41;88.11
47861;HTU21D;33620;52.340;5.984;2022-12-11T14:31:33;2.41;88.09
47861;HTU21D;33620;52.340;5.984;2022-12-11T14:34:13;2.39;88.12
47861;HTU21D;33620;52.340;5.984;2022-12-11T14:36:40;2.37;88.31
47861;HTU21D;33620;52.340;5.984;2022-12-11T14:39:12;2.37;88.38
47861;HTU21D;33620;52.340;5.984;2022-12-11T14:44:57;2.38;88.47
47861;HTU21D;33620;52.340;5.984;2022-12-11T14:47:27;2.36;88.25
47861;HTU21D;33620;52.340;5.984;2022-12-11T14:50:02;2.32;88.28
47861;HTU21D;33620;52.340;5.984;2022-12-11T14:52:35;2.30;88.21
47861;HTU21D;33620;52.340;5.984;2022-12-11T14:55:07;2.29;88.26
47861;HTU21D;33620;52.340;5.984;2022-12-11T14:57:35;2.27;88.36
47861;HTU21D;33620;52.340;5.984;2022-12-11T15:00:01;2.28;88.44
47861;HTU21D;33620;52.340;5.984;2022-12-11T15:02:31;2.26;88.32
47861;HTU21D;33620;52.340;5.984;2022-12-11T15:07:25;2.30;88.38
47861;HTU21D;33620;52.340;5.984;2022-12-11T15:09:51;2.30;88.40
47861;HTU21D;33620;52.340;5.984;2022-12-11T15:12:18;2.31;88.36
47861;HTU21D;33620;52.340;5.984;2022-12-11T15:17:19;2.31;88.35
47861;HTU21D;33620;52.340;5.984;2022-12-11T15:19:59;2.34;88.28
47861;HTU21D;33620;52.340;5.984;2022-12-11T15:22:29;2.34;88.31
47861;HTU21D;33620;52.340;5.984;2022-12-11T15:24:55;2.34;88.38
47861;HTU21D;33620;52.340;5.984;2022-12-11T15:27:35;2.30;88.22
47861;HTU21D;33620;52.340;5.984;2022-12-11T15:32:39;2.27;88.23
47861;HTU21D;33620;52.340;5.984;2022-12-11T15:35:22;2.27;88.22
47861;HTU21D;33620;52.340;5.984;2022-12-11T15:37:52;2.29;88.43
47861;HTU21D;33620;52.340;5.984;2022-12-11T15:40:18;2.29;88.49
47861;HTU21D;33620;52.340;5.984;2022-12-11T15:42:43;2.29;88.57
47861;HTU21D;33620;52.340;5.984;2022-12-11T15:45:18;2.27;88.46
47861;HTU21D;33620;52.340;5.984;2022-12-11T15:47:45;2.24;88.55
47861;HTU21D;33620;52.340;5.984;2022-12-11T15:52:44;2.24;88.68
47861;HTU21D;33620;52.340;5.984;2022-12-11T15:55:10;2.21;88.55
47861;HTU21D;33620;52.340;5.984;2022-12-11T15:57:36;2.23;88.53
47861;HTU21D;33620;52.340;5.984;2022-12-11T16:00:03;2.24;88.53
47861;HTU21D;33620;52.340;5.984;2022-12-11T16:02:31;2.25;88.62
47861;HTU21D;33620;52.340;5.984;2022-12-11T16:04:56;2.25;88.43
47861;HTU21D;33620;52.340;5.984;2022-12-11T16:07:24;2.23;88.32
47861;HTU21D;33620;52.340;5.984;2022-12-11T16:09:50;2.22;88.43
47861;HTU21D;33620;52.340;5.984;2022-12-11T16:12:16;2.23;88.37
47861;HTU21D;33620;52.340;5.984;2022-12-11T16:14:43;2.21;88.30
47861;HTU21D;33620;52.340;5.984;2022-12-11T16:17:11;2.20;88.44
47861;HTU21D;33620;52.340;5.984;2022-12-11T16:19:37;2.24;88.46
47861;HTU21D;33620;52.340;5.984;2022-12-11T16:22:03;2.25;88.57
47861;HTU21D;33620;52.340;5.984;2022-12-11T16:24:29;2.26;88.45
47861;HTU21D;33620;52.340;5.984;2022-12-11T16:26:54;2.25;88.31
47861;HTU21D;33620;52.340;5.984;2022-12-11T16:29:19;2.25;88.40
47861;HTU21D;33620;52.340;5.984;2022-12-11T16:31:45;2.25;88.32
47861;HTU21D;33620;52.340;5.984;2022-12-11T16:34:10;2.25;88.35
47861;HTU21D;33620;52.340;5.984;2022-12-11T16:36:36;2.24;88.25
47861;HTU21D;33620;52.340;5.984;2022-12-11T16:39:02;2.23;88.26
47861;HTU21D;33620;52.340;5.984;2022-12-11T16:41:28;2.23;88.16
47861;HTU21D;33620;52.340;5.984;2022-12-11T16:43:53;2.21;88.05
47861;HTU21D;33620;52.340;5.984;2022-12-11T16:46:20;2.22;88.17
47861;HTU21D;33620;52.340;5.984;2022-12-11T16:48:46;2.21;88.03
47861;HTU21D;33620;52.340;5.984;2022-12-11T16:51:12;2.21;88.00
47861;HTU21D;33620;52.340;5.984;2022-12-11T16:53:38;2.20;88.14
47861;HTU21D;33620;52.340;5.984;2022-12-11T16:56:04;2.21;88.06
47861;HTU21D;33620;52.340;5.984;2022-12-11T16:58:30;2.23;88.00
47861;HTU21D;33620;52.340;5.984;2022-12-11T17:00:55;2.23;87.95
47861;HTU21D;33620;52.340;5.984;2022-12-11T17:03:30;2.23;87.93
47861;HTU21D;33620;52.340;5.984;2022-12-11T17:05:56;2.24;87.88
47861;HTU21D;33620;52.340;5.984;2022-12-11T17:08:22;2.21;87.85
47861;HTU21D;33620;52.340;5.984;2022-12-11T17:10:48;2.21;88.04
47861;HTU21D;33620;52.340;5.984;2022-12-11T17:13:14;2.22;88.00
47861;HTU21D;33620;52.340;5.984;2022-12-11T17:15:40;2.20;87.83
47861;HTU21D;33620;52.340;5.984;2022-12-11T17:18:06;2.20;87.77
47861;HTU21D;33620;52.340;5.984;2022-12-11T17:20:31;2.20;87.93